createdAt,value
2019-05-07T00:01:57.014Z,12.37
2019-05-07T00:04:29.161Z,14.97
2019-05-07T00:07:02.397Z,16.20
2019-05-07T00:09:34.974Z,16.67
2019-05-07T00:12:07.023Z,16.70
2019-05-07T00:14:39.858Z,16.20
2019-05-07T00:17:13.041Z,23.57
2019-05-07T00:19:47.247Z,18.83
2019-05-07T00:22:19.060Z,14.77
2019-05-07T00:24:52.154Z,22.70
2019-05-07T00:27:24.386Z,16.67
2019-05-07T00:29:56.557Z,16.00
2019-05-07T00:32:28.315Z,23.13
2019-05-07T00:35:03.409Z,20.43
2019-05-07T00:37:44.227Z,16.73
2019-05-07T00:40:35.130Z,18.57
2019-05-07T00:43:12.074Z,23.30
2019-05-07T00:45:57.315Z,20.67
2019-05-07T00:48:29.216Z,19.10
2019-05-07T00:51:18.689Z,20.80
2019-05-07T00:53:52.037Z,21.73
2019-05-07T00:56:24.433Z,21.70
2019-05-07T00:58:56.846Z,20.27
2019-05-07T01:01:28.933Z,20.47
2019-05-07T01:04:02.686Z,20.37
2019-05-07T01:06:34.605Z,16.90
2019-05-07T01:09:08.402Z,20.17
2019-05-07T01:11:42.718Z,20.07
2019-05-07T01:14:14.142Z,18.73
2019-05-07T01:16:46.347Z,22.80
2019-05-07T01:19:18.162Z,23.07
2019-05-07T01:21:52.338Z,21.83
2019-05-07T01:24:23.663Z,20.73
2019-05-07T01:26:57.192Z,21.33
2019-05-07T01:29:32.847Z,16.73
2019-05-07T01:32:18.882Z,18.63
2019-05-07T01:34:56.273Z,19.87
2019-05-07T01:37:28.028Z,17.00
2019-05-07T01:39:59.955Z,18.13
2019-05-07T01:42:32.707Z,20.23
2019-05-07T01:45:06.010Z,18.37
2019-05-07T01:47:37.899Z,24.00
2019-05-07T01:50:09.692Z,17.87
2019-05-07T01:52:42.693Z,20.27
2019-05-07T01:55:14.935Z,24.37
2019-05-07T01:57:46.948Z,21.73
2019-05-07T02:00:19.245Z,19.80
2019-05-07T02:02:56.740Z,19.07
2019-05-07T02:05:43.991Z,17.67
2019-05-07T02:08:22.101Z,15.80
2019-05-07T02:11:01.936Z,13.60
2019-05-07T02:13:33.868Z,14.87
2019-05-07T02:16:05.672Z,16.53
2019-05-07T02:18:37.575Z,15.60
2019-05-07T02:21:09.356Z,15.60
2019-05-07T02:23:42.637Z,16.40
2019-05-07T02:26:14.883Z,12.37
2019-05-07T02:28:46.875Z,16.37
2019-05-07T02:31:19.157Z,15.60
2019-05-07T02:33:53.878Z,15.83
2019-05-07T02:36:24.865Z,12.57
2019-05-07T02:39:15.832Z,15.67
2019-05-07T02:41:47.683Z,14.77
2019-05-07T02:44:23.016Z,15.43
2019-05-07T02:47:04.006Z,14.73
2019-05-07T02:49:53.557Z,15.13
2019-05-07T02:52:44.049Z,19.43
2019-05-07T02:55:25.565Z,17.43
2019-05-07T02:57:57.464Z,15.33
2019-05-07T03:00:29.368Z,15.03
2019-05-07T03:03:03.792Z,17.00
2019-05-07T03:05:38.542Z,17.40
2019-05-07T03:08:13.195Z,15.47
2019-05-07T03:10:44.409Z,15.13
2019-05-07T03:13:16.204Z,13.33
2019-05-07T03:15:48.133Z,15.37
2019-05-07T03:18:23.017Z,15.73
2019-05-07T03:21:03.464Z,16.83
2019-05-07T03:23:46.332Z,15.60
2019-05-07T03:26:30.046Z,17.40
2019-05-07T03:29:05.271Z,14.77
2019-05-07T03:31:47.216Z,17.50
2019-05-07T03:34:45.740Z,13.90
2019-05-07T03:37:16.058Z,13.90
2019-05-07T03:39:47.767Z,12.60
2019-05-07T03:42:19.629Z,14.87
2019-05-07T03:44:57.842Z,18.20
2019-05-07T03:47:37.728Z,15.17
2019-05-07T03:50:14.688Z,14.40
2019-05-07T03:52:45.934Z,11.07
2019-05-07T03:55:18.806Z,15.23
2019-05-07T03:57:52.751Z,16.30
2019-05-07T04:00:24.261Z,14.57
2019-05-07T04:02:56.163Z,23.07
2019-05-07T04:05:27.952Z,22.47
2019-05-07T04:07:59.789Z,21.63
2019-05-07T04:10:33.867Z,19.43
2019-05-07T04:13:05.880Z,23.90
2019-05-07T04:15:37.854Z,23.97
2019-05-07T04:18:12.861Z,17.57
2019-05-07T04:20:43.938Z,20.80
2019-05-07T04:23:16.205Z,17.83
2019-05-07T04:25:56.359Z,14.83
2019-05-07T04:28:33.754Z,12.83
2019-05-07T04:31:06.608Z,17.80
2019-05-07T04:33:44.015Z,15.37
2019-05-07T04:36:27.821Z,24.30
2019-05-07T04:39:02.680Z,11.03
2019-05-07T04:41:34.701Z,17.97
2019-05-07T04:44:06.797Z,13.67
2019-05-07T04:46:38.717Z,17.00
2019-05-07T04:49:12.999Z,16.40
2019-05-07T04:51:53.081Z,17.73
2019-05-07T04:54:25.200Z,15.77
2019-05-07T04:56:57.286Z,15.97
2019-05-07T04:59:29.489Z,10.90
2019-05-07T05:02:13.559Z,12.23
2019-05-07T05:04:45.681Z,11.73
2019-05-07T05:07:19.548Z,16.37
2019-05-07T05:09:53.248Z,13.83
2019-05-07T05:12:24.758Z,18.00
2019-05-07T05:14:56.899Z,11.80
2019-05-07T05:17:28.660Z,11.37
2019-05-07T05:20:03.559Z,17.27
2019-05-07T05:23:02.651Z,14.80
2019-05-07T05:25:37.610Z,14.47
2019-05-07T05:28:12.239Z,17.00
2019-05-07T05:30:49.375Z,13.97
2019-05-07T05:33:23.283Z,14.93
2019-05-07T05:35:54.835Z,19.77
2019-05-07T05:38:26.635Z,16.23
2019-05-07T05:40:58.706Z,12.23
2019-05-07T05:43:36.323Z,15.63
2019-05-07T05:46:11.922Z,10.67
2019-05-07T05:48:43.054Z,14.13
2019-05-07T05:51:34.104Z,13.43
2019-05-07T05:54:12.771Z,16.93
2019-05-07T05:56:52.951Z,17.10
2019-05-07T05:59:47.425Z,15.93
2019-05-07T06:02:26.312Z,10.40
2019-05-07T06:05:22.061Z,10.87
2019-05-07T06:08:03.818Z,14.40
2019-05-07T06:10:43.260Z,12.87
2019-05-07T06:13:22.602Z,10.33
2019-05-07T06:16:06.767Z,13.90
2019-05-07T06:18:48.026Z,9.63
2019-05-07T06:21:47.678Z,10.83
2019-05-07T06:24:32.606Z,12.73
2019-05-07T06:27:05.817Z,10.30
2019-05-07T06:29:37.882Z,17.57
2019-05-07T06:32:12.149Z,13.93
2019-05-07T06:34:44.830Z,10.17
2019-05-07T06:37:16.740Z,15.40
2019-05-07T06:40:13.612Z,12.13
2019-05-07T06:43:03.879Z,16.83
2019-05-07T06:45:42.190Z,9.27
2019-05-07T06:48:14.230Z,6.40
2019-05-07T06:50:58.908Z,9.63
2019-05-07T06:53:33.318Z,11.47
2019-05-07T06:56:07.146Z,10.30
2019-05-07T06:58:47.564Z,10.03
2019-05-07T07:01:52.819Z,16.47
2019-05-07T07:04:33.142Z,8.73
2019-05-07T07:07:26.112Z,8.57
2019-05-07T07:09:54.155Z,13.10
2019-05-07T07:12:28.443Z,12.70
2019-05-07T07:15:02.562Z,26.57
2019-05-07T07:17:34.078Z,23.27
2019-05-07T07:20:06.706Z,55.00
2019-05-07T07:22:38.590Z,91.17
2019-05-07T07:25:13.925Z,111.30
2019-05-07T07:27:46.056Z,93.77
2019-05-07T07:30:38.878Z,90.90
2019-05-07T07:33:14.585Z,19.90
2019-05-07T07:35:47.119Z,25.05
2019-05-07T07:38:34.338Z,13.37
2019-05-07T07:41:22.090Z,18.15
2019-05-07T07:43:53.627Z,13.10
2019-05-07T07:46:25.552Z,15.20
2019-05-07T07:49:09.906Z,15.88
2019-05-07T07:51:41.134Z,20.37
2019-05-07T07:54:08.127Z,9.08
2019-05-07T07:56:56.907Z,11.43
2019-05-07T08:00:02.424Z,14.85
2019-05-07T08:02:43.571Z,13.15
2019-05-07T08:05:15.747Z,10.25
2019-05-07T08:07:47.525Z,11.57
2019-05-07T08:10:19.614Z,13.38
2019-05-07T08:12:52.590Z,8.00
2019-05-07T08:15:25.233Z,13.40
2019-05-07T08:17:57.262Z,9.53
2019-05-07T08:20:29.678Z,11.63
2019-05-07T08:23:03.054Z,11.22
2019-05-07T08:25:52.476Z,15.65
2019-05-07T08:28:24.918Z,22.67
2019-05-07T08:31:04.131Z,13.30
2019-05-07T08:33:42.588Z,11.85
2019-05-07T08:36:18.939Z,16.40
2019-05-07T08:38:52.795Z,10.38
2019-05-07T08:41:28.160Z,14.07
2019-05-07T08:44:11.618Z,14.23
2019-05-07T08:46:52.202Z,15.38
2019-05-07T08:49:35.777Z,18.77
2019-05-07T08:52:03.495Z,70.00
2019-05-07T08:54:35.667Z,62.73
2019-05-07T08:57:07.811Z,66.10
2019-05-07T08:59:39.701Z,79.47
2019-05-07T09:02:12.625Z,65.17
2019-05-07T09:04:44.776Z,83.50
2019-05-07T09:07:16.801Z,108.92
2019-05-07T09:09:48.606Z,73.10
2019-05-07T09:12:22.725Z,68.60
2019-05-07T09:14:53.987Z,61.23
2019-05-07T09:17:26.087Z,67.87
2019-05-07T09:19:57.891Z,25.70
2019-05-07T09:22:32.145Z,76.10
2019-05-07T09:25:03.616Z,63.20
2019-05-07T09:27:44.537Z,60.15
2019-05-07T09:30:28.259Z,64.42
2019-05-07T09:33:27.041Z,55.12
2019-05-07T09:35:58.890Z,56.65
2019-05-07T09:38:32.619Z,50.35
2019-05-07T09:41:04.314Z,68.40
2019-05-07T09:43:36.217Z,62.33
2019-05-07T09:46:07.998Z,54.27
2019-05-07T09:48:41.736Z,60.50
2019-05-07T09:51:13.619Z,62.35
2019-05-07T09:53:45.600Z,65.72
2019-05-07T09:56:17.441Z,49.23
2019-05-07T09:58:50.180Z,68.02
2019-05-07T10:01:23.663Z,56.65
2019-05-07T10:03:56.149Z,46.55
2019-05-07T10:06:28.029Z,43.35
2019-05-07T10:08:59.995Z,54.80
2019-05-07T10:11:39.597Z,35.60
2019-05-07T10:14:12.762Z,81.02
2019-05-07T10:17:02.374Z,86.35
2019-05-07T10:19:34.711Z,97.75
2019-05-07T10:22:07.051Z,76.28
2019-05-07T10:24:41.785Z,71.20
2019-05-07T10:27:13.646Z,83.97
2019-05-07T10:29:45.527Z,101.87
2019-05-07T10:32:17.320Z,90.22
2019-05-07T10:34:49.391Z,73.83
2019-05-07T10:37:21.302Z,59.58
2019-05-07T10:39:53.224Z,98.42
2019-05-07T10:42:25.019Z,121.72
2019-05-07T10:45:08.091Z,64.62
2019-05-07T10:47:46.827Z,64.72
2019-05-07T10:50:35.348Z,102.00
2019-05-07T10:52:57.902Z,70.47
2019-05-07T10:55:29.967Z,104.45
2019-05-07T10:58:02.933Z,121.87
2019-05-07T11:00:35.314Z,124.65
2019-05-07T11:03:07.364Z,128.53
2019-05-07T11:05:39.295Z,127.67
2019-05-07T11:08:11.489Z,116.95
2019-05-07T11:10:43.579Z,105.65
2019-05-07T11:13:15.516Z,81.85
2019-05-07T11:15:51.708Z,51.73
2019-05-07T11:18:35.421Z,69.25
2019-05-07T11:21:07.710Z,107.32
2019-05-07T11:23:41.765Z,98.90
2019-05-07T11:26:13.399Z,75.65
2019-05-07T11:28:45.195Z,91.47
2019-05-07T11:31:17.211Z,120.87
2019-05-07T11:33:49.030Z,127.27
2019-05-07T11:36:21.158Z,129.70
2019-05-07T11:38:52.908Z,129.82
2019-05-07T11:41:42.288Z,126.82
2019-05-07T11:44:19.458Z,106.67
2019-05-07T11:47:09.140Z,121.60
2019-05-07T11:49:58.656Z,125.80
2019-05-07T11:52:35.913Z,126.62
2019-05-07T11:55:08.433Z,115.60
2019-05-07T11:57:44.191Z,71.47
2019-05-07T12:00:32.146Z,117.10
2019-05-07T12:03:04.231Z,2.72
2019-05-07T12:05:36.007Z,10.40
2019-05-07T12:08:08.223Z,11.08
2019-05-07T12:10:39.972Z,9.63
2019-05-07T12:13:12.833Z,10.40
2019-05-07T12:15:45.334Z,8.18
2019-05-07T12:18:17.174Z,8.78
2019-05-07T12:20:48.941Z,13.85
2019-05-07T12:23:22.622Z,11.48
2019-05-07T12:25:54.626Z,14.05
2019-05-07T12:28:26.882Z,9.53
2019-05-07T12:31:23.431Z,10.90
2019-05-07T12:34:12.794Z,10.30
2019-05-07T12:36:44.840Z,9.13
2019-05-07T12:39:17.061Z,12.73
2019-05-07T12:41:48.895Z,14.87
2019-05-07T12:44:22.176Z,12.93
2019-05-07T12:46:54.187Z,13.45
2019-05-07T12:49:26.191Z,9.20
2019-05-07T12:52:22.966Z,10.03
2019-05-07T12:55:13.839Z,9.68
2019-05-07T12:57:45.701Z,10.15
2019-05-07T13:00:36.589Z,10.13
2019-05-07T13:03:39.557Z,10.98
2019-05-07T13:06:12.633Z,10.10
2019-05-07T13:08:44.700Z,11.08
2019-05-07T13:11:16.809Z,13.18
2019-05-07T13:13:48.587Z,7.28
2019-05-07T13:16:22.050Z,11.63
2019-05-07T13:18:54.107Z,11.25
2019-05-07T13:21:25.981Z,10.35
2019-05-07T13:23:57.772Z,14.05
2019-05-07T13:26:32.009Z,20.82
2019-05-07T13:29:03.186Z,17.50
2019-05-07T13:31:36.611Z,19.95
2019-05-07T13:34:08.465Z,21.70
2019-05-07T13:36:44.098Z,16.93
2019-05-07T13:39:29.588Z,16.48
2019-05-07T13:42:21.623Z,14.90
2019-05-07T13:45:24.675Z,15.28
2019-05-07T13:48:09.574Z,15.05
2019-05-07T13:50:42.179Z,10.85
2019-05-07T13:53:14.115Z,12.23
2019-05-07T13:55:46.095Z,13.65
2019-05-07T13:58:18.088Z,20.40
2019-05-07T14:01:15.000Z,13.48
2019-05-07T14:03:46.915Z,16.35
2019-05-07T14:06:37.698Z,10.58
2019-05-07T14:09:24.503Z,10.65
2019-05-07T14:11:57.510Z,11.15
2019-05-07T14:14:34.196Z,10.72
2019-05-07T14:17:03.171Z,11.22
2019-05-07T14:19:35.159Z,13.40
2019-05-07T14:22:17.965Z,11.00
2019-05-07T14:24:42.334Z,10.55
2019-05-07T14:27:14.502Z,9.25
2019-05-07T14:29:46.477Z,7.87
2019-05-07T14:32:37.596Z,9.45
2019-05-07T14:35:41.829Z,9.48
2019-05-07T14:38:32.567Z,7.05
2019-05-07T14:41:04.669Z,6.42
2019-05-07T14:43:52.306Z,8.43
2019-05-07T14:46:24.733Z,7.58
2019-05-07T14:48:56.929Z,5.37
2019-05-07T14:51:29.246Z,6.70
2019-05-07T14:54:01.821Z,7.28
2019-05-07T14:56:34.160Z,6.35
2019-05-07T14:59:06.534Z,5.80
2019-05-07T15:01:38.802Z,7.17
2019-05-07T15:04:12.732Z,9.15
2019-05-07T15:06:46.624Z,8.30
2019-05-07T15:09:18.481Z,7.50
2019-05-07T15:11:52.592Z,6.92
2019-05-07T15:14:24.750Z,4.35
2019-05-07T15:17:02.297Z,5.55
2019-05-07T15:19:34.270Z,6.12
2019-05-07T15:22:46.198Z,5.55
2019-05-07T15:25:08.186Z,8.05
2019-05-07T15:27:42.050Z,4.78
2019-05-07T15:30:13.955Z,6.70
2019-05-07T15:32:45.907Z,5.22
2019-05-07T15:35:17.715Z,8.38
2019-05-07T15:37:51.693Z,4.78
2019-05-07T15:40:23.419Z,5.28
2019-05-07T15:42:55.580Z,4.50
2019-05-07T15:45:27.710Z,6.03
2019-05-07T15:48:01.995Z,6.87
2019-05-07T15:50:33.495Z,7.47
2019-05-07T15:53:32.339Z,9.50
2019-05-07T15:56:04.242Z,10.10
2019-05-07T15:58:36.525Z,9.98
2019-05-07T16:01:08.702Z,10.60
2019-05-07T16:03:43.357Z,7.92
2019-05-07T16:06:15.164Z,10.65
2019-05-07T16:08:54.284Z,8.40
2019-05-07T16:11:26.223Z,8.30
2019-05-07T16:14:26.167Z,6.28
2019-05-07T16:17:09.004Z,5.37
2019-05-07T16:19:42.588Z,7.85
2019-05-07T16:22:22.142Z,9.05
2019-05-07T16:24:53.841Z,17.85
2019-05-07T16:27:25.706Z,8.90
2019-05-07T16:29:57.762Z,10.05
2019-05-07T16:32:30.021Z,8.08
2019-05-07T16:35:02.710Z,6.92
2019-05-07T16:37:35.646Z,11.05
2019-05-07T16:40:09.017Z,8.20
2019-05-07T16:42:42.691Z,8.23
2019-05-07T16:45:15.888Z,9.23
2019-05-07T16:47:47.830Z,6.80
2019-05-07T16:50:22.426Z,9.95
2019-05-07T16:52:53.991Z,7.45
2019-05-07T16:55:36.888Z,6.65
2019-05-07T16:58:34.499Z,7.35
2019-05-07T17:01:07.410Z,7.45
2019-05-07T17:03:47.128Z,10.82
2019-05-07T17:06:19.040Z,9.90
2019-05-07T17:08:55.713Z,6.30
2019-05-07T17:11:27.689Z,13.53
2019-05-07T17:13:59.528Z,12.15
2019-05-07T17:16:31.858Z,11.05
2019-05-07T17:19:05.650Z,13.50
2019-05-07T17:21:37.570Z,10.50
2019-05-07T17:24:09.341Z,11.40
2019-05-07T17:26:42.345Z,18.05
2019-05-07T17:29:14.588Z,9.70
2019-05-07T17:31:46.756Z,14.58
2019-05-07T17:34:19.033Z,8.85
2019-05-07T17:36:52.426Z,9.25
2019-05-07T17:39:24.556Z,11.28
2019-05-07T17:41:58.025Z,8.00
2019-05-07T17:44:32.412Z,11.43
2019-05-07T17:47:04.870Z,10.00
2019-05-07T17:49:36.995Z,10.45
2019-05-07T17:52:10.570Z,18.48
2019-05-07T17:54:42.501Z,16.37
2019-05-07T17:57:15.988Z,14.80
2019-05-07T17:59:47.998Z,17.48
2019-05-07T18:02:30.182Z,17.73
2019-05-07T18:05:02.864Z,14.13
2019-05-07T18:07:36.885Z,15.25
2019-05-07T18:10:12.452Z,22.32
2019-05-07T18:12:44.136Z,19.00
2019-05-07T18:15:16.027Z,20.57
2019-05-07T18:17:53.940Z,19.65
2019-05-07T18:20:25.773Z,25.60
2019-05-07T18:22:57.652Z,18.95
2019-05-07T18:25:29.541Z,19.30
2019-05-07T18:28:01.931Z,23.63
2019-05-07T18:30:34.811Z,23.73
2019-05-07T18:33:27.329Z,23.15
2019-05-07T18:35:59.541Z,22.17
2019-05-07T18:38:32.999Z,16.83
2019-05-07T18:41:05.037Z,24.93
2019-05-07T18:43:37.134Z,12.67
2019-05-07T18:46:08.975Z,16.33
2019-05-07T18:48:42.636Z,13.93
2019-05-07T18:51:14.844Z,12.33
2019-05-07T18:53:47.033Z,15.20
2019-05-07T18:56:18.973Z,13.67
2019-05-07T18:58:52.083Z,14.10
2019-05-07T19:01:27.423Z,12.47
2019-05-07T19:03:59.600Z,17.57
2019-05-07T19:06:31.916Z,18.73
2019-05-07T19:09:06.115Z,14.17
2019-05-07T19:11:39.648Z,20.33
2019-05-07T19:14:13.425Z,23.03
2019-05-07T19:16:45.313Z,22.17
2019-05-07T19:19:17.712Z,20.87
2019-05-07T19:21:49.805Z,26.03
2019-05-07T19:24:25.673Z,25.23
2019-05-07T19:26:56.036Z,26.83
2019-05-07T19:29:28.306Z,20.00
2019-05-07T19:32:00.535Z,32.67
2019-05-07T19:34:32.919Z,30.50
2019-05-07T19:37:04.919Z,25.07
2019-05-07T19:39:37.007Z,26.53
2019-05-07T19:42:09.014Z,32.00
2019-05-07T19:44:42.343Z,22.47
2019-05-07T19:47:14.677Z,35.90
2019-05-07T19:49:46.844Z,30.93
2019-05-07T19:52:18.979Z,38.00
2019-05-07T19:54:58.889Z,31.33
2019-05-07T19:57:30.075Z,34.97
2019-05-07T20:00:02.467Z,25.47
2019-05-07T20:02:43.085Z,37.17
2019-05-07T20:05:15.057Z,31.30
2019-05-07T20:07:48.479Z,36.07
2019-05-07T20:10:28.765Z,43.17
2019-05-07T20:13:02.998Z,36.27
2019-05-07T20:15:35.027Z,29.67
2019-05-07T20:18:07.309Z,31.83
2019-05-07T20:20:39.677Z,45.60
2019-05-07T20:23:12.094Z,47.43
2019-05-07T20:25:44.168Z,35.13
2019-05-07T20:28:16.622Z,41.40
2019-05-07T20:30:52.147Z,37.67
2019-05-07T20:33:23.736Z,27.60
2019-05-07T20:35:56.393Z,25.73
2019-05-07T20:38:28.503Z,24.00
2019-05-07T20:41:02.074Z,24.37
2019-05-07T20:43:34.684Z,26.77
2019-05-07T20:46:07.119Z,24.80
2019-05-07T20:48:39.111Z,27.10
2019-05-07T20:51:12.519Z,23.07
2019-05-07T20:54:12.985Z,22.77
2019-05-07T20:56:52.549Z,35.30
2019-05-07T20:59:24.306Z,29.37
2019-05-07T21:01:56.174Z,28.23
2019-05-07T21:04:28.019Z,32.20
2019-05-07T21:07:01.998Z,29.50
2019-05-07T21:09:33.757Z,28.57
2019-05-07T21:12:05.637Z,28.57
2019-05-07T21:14:37.546Z,26.43
2019-05-07T21:17:11.779Z,27.63
2019-05-07T21:19:43.187Z,28.20
2019-05-07T21:22:15.367Z,35.63
2019-05-07T21:24:47.437Z,31.83
2019-05-07T21:27:19.607Z,35.07
2019-05-07T21:29:52.788Z,30.50
2019-05-07T21:32:24.925Z,31.63
2019-05-07T21:34:56.750Z,37.23
2019-05-07T21:37:28.684Z,38.23
2019-05-07T21:40:02.404Z,37.13
2019-05-07T21:42:34.342Z,30.60
2019-05-07T21:45:06.621Z,30.20
2019-05-07T21:47:38.713Z,35.10
2019-05-07T21:50:12.422Z,46.43
2019-05-07T21:52:48.012Z,40.90
2019-05-07T21:55:26.841Z,61.13
2019-05-07T21:58:05.782Z,94.57
2019-05-07T22:01:02.008Z,86.20
2019-05-07T22:03:35.125Z,29.37
2019-05-07T22:06:09.690Z,50.00
2019-05-07T22:08:41.106Z,40.93
2019-05-07T22:11:13.805Z,26.27
2019-05-07T22:13:46.131Z,28.87
2019-05-07T22:16:18.082Z,30.60
2019-05-07T22:18:52.052Z,28.60
2019-05-07T22:21:23.671Z,29.03
2019-05-07T22:23:55.618Z,32.33
2019-05-07T22:26:27.543Z,28.33
2019-05-07T22:28:59.417Z,25.73
2019-05-07T22:31:43.964Z,24.07
2019-05-07T22:34:39.709Z,27.83
2019-05-07T22:37:13.220Z,29.63
2019-05-07T22:39:46.669Z,29.33
2019-05-07T22:42:23.075Z,26.03
2019-05-07T22:44:55.264Z,30.20
2019-05-07T22:47:27.108Z,24.40
2019-05-07T22:49:59.179Z,27.57
2019-05-07T22:52:32.622Z,28.37
2019-05-07T22:55:04.723Z,26.93
2019-05-07T22:57:45.346Z,32.20
2019-05-07T23:00:43.547Z,30.80
2019-05-07T23:03:15.375Z,33.00
2019-05-07T23:05:47.186Z,31.43
2019-05-07T23:08:19.144Z,28.03
2019-05-07T23:10:52.565Z,29.27
2019-05-07T23:13:24.557Z,31.07
2019-05-07T23:15:56.678Z,28.77
2019-05-07T23:18:28.429Z,30.67
2019-05-07T23:21:00.437Z,30.03
2019-05-07T23:23:32.612Z,27.37
2019-05-07T23:26:04.959Z,29.37
2019-05-07T23:28:36.994Z,27.37
2019-05-07T23:31:08.814Z,31.10
2019-05-07T23:33:40.742Z,30.00
2019-05-07T23:36:13.025Z,26.17
2019-05-07T23:38:44.944Z,29.57
2019-05-07T23:41:38.669Z,30.27
2019-05-07T23:44:16.077Z,33.43
2019-05-07T23:46:48.119Z,35.20
2019-05-07T23:49:19.945Z,29.23
2019-05-07T23:51:53.047Z,26.03
2019-05-07T23:54:25.579Z,30.23
2019-05-07T23:57:05.995Z,28.23
2019-05-07T23:59:32.964Z,27.53
